createdAt,value
2022-12-03T00:07:17.139Z,101.33
2022-12-03T00:17:21.050Z,99.33
2022-12-03T00:27:26.250Z,94.90
2022-12-03T00:37:30.191Z,100.40
2022-12-03T00:47:36.608Z,100.57
2022-12-03T00:57:40.290Z,102.83
2022-12-03T01:07:46.245Z,101.07
2022-12-03T01:17:50.193Z,102.53
2022-12-03T01:27:55.946Z,100.93
2022-12-03T01:37:59.762Z,98.83
2022-12-03T01:48:05.028Z,97.03
2022-12-03T01:58:10.725Z,102.63
2022-12-03T02:08:32.568Z,100.13
2022-12-03T02:18:36.390Z,100.80
2022-12-03T02:28:41.785Z,103.33
2022-12-03T02:38:47.665Z,101.70
2022-12-03T02:48:53.009Z,100.70
2022-12-03T02:59:03.597Z,101.30
2022-12-03T03:09:08.955Z,108.67
2022-12-03T03:19:12.810Z,106.93
2022-12-03T03:29:18.188Z,103.10
2022-12-03T03:39:21.952Z,99.83
2022-12-03T03:49:27.613Z,105.13
2022-12-03T03:59:31.552Z,105.37
2022-12-03T04:09:36.726Z,98.37
2022-12-03T04:19:40.524Z,98.37
2022-12-03T04:29:45.821Z,103.20
2022-12-03T04:39:49.704Z,101.47
2022-12-03T04:49:54.995Z,98.93
2022-12-03T04:59:58.923Z,98.47
2022-12-03T05:10:04.516Z,98.93
2022-12-03T05:20:28.192Z,98.07
2022-12-03T05:30:33.744Z,102.67
2022-12-03T05:40:38.201Z,97.07
2022-12-03T05:50:45.287Z,102.47
2022-12-03T06:00:51.990Z,98.77
2022-12-03T06:10:57.120Z,101.67
2022-12-03T06:21:00.896Z,96.17
2022-12-03T06:31:06.770Z,103.43
2022-12-03T06:41:10.544Z,102.97
2022-12-03T06:51:16.248Z,94.70
2022-12-03T07:01:20.440Z,100.47
2022-12-03T07:11:40.228Z,102.57
2022-12-03T07:21:44.254Z,102.10
2022-12-03T07:31:49.532Z,100.80
2022-12-03T07:41:53.371Z,100.53
2022-12-03T07:51:58.485Z,99.30
2022-12-03T08:02:03.574Z,100.80
2022-12-03T08:12:18.144Z,97.73
2022-12-03T08:22:22.430Z,105.07
2022-12-03T08:32:27.416Z,106.60
2022-12-03T08:42:42.815Z,98.63
2022-12-03T08:52:47.962Z,103.63
2022-12-03T09:02:54.393Z,102.80
2022-12-03T09:12:59.581Z,106.73
2022-12-03T09:23:03.302Z,103.60
2022-12-03T09:33:08.777Z,99.77
2022-12-03T09:43:14.443Z,103.83
2022-12-03T09:53:23.838Z,105.47
2022-12-03T10:03:31.473Z,104.97
2022-12-03T10:13:37.465Z,106.80
2022-12-03T10:23:43.796Z,106.47
2022-12-03T10:33:48.950Z,108.30
2022-12-03T10:43:52.869Z,108.67
2022-12-03T10:53:58.114Z,104.03
2022-12-03T11:04:06.343Z,114.40
2022-12-03T11:14:15.666Z,111.03
2022-12-03T11:24:22.887Z,108.43
2022-12-03T11:34:52.703Z,107.33
2022-12-03T11:45:20.424Z,114.70
2022-12-03T11:55:32.026Z,106.03
2022-12-03T12:05:35.997Z,108.40
2022-12-03T12:15:46.060Z,106.80
2022-12-03T12:25:54.204Z,112.50
2022-12-03T12:35:59.743Z,102.03
2022-12-03T12:46:45.973Z,109.73
2022-12-03T12:56:42.322Z,105.93
2022-12-03T13:06:48.905Z,106.50
2022-12-03T13:16:56.273Z,113.17
2022-12-03T13:27:02.941Z,117.10
2022-12-03T13:37:14.912Z,109.80
2022-12-03T13:47:23.513Z,107.53
2022-12-03T13:57:28.547Z,107.67
2022-12-03T14:07:32.219Z,105.03
2022-12-03T14:17:37.360Z,117.97
2022-12-03T14:27:41.132Z,115.50
2022-12-03T14:37:46.386Z,105.27
2022-12-03T14:47:50.257Z,106.17
2022-12-03T14:57:55.343Z,106.63
2022-12-03T15:07:59.214Z,104.90
2022-12-03T15:18:04.431Z,104.67
2022-12-03T15:28:08.255Z,100.60
2022-12-03T15:38:14.014Z,111.80
2022-12-03T15:48:17.842Z,105.73
2022-12-03T15:58:23.099Z,107.80
2022-12-03T16:08:27.073Z,103.63
2022-12-03T16:18:32.404Z,109.60
2022-12-03T16:28:36.317Z,114.47
2022-12-03T16:38:41.935Z,105.90
2022-12-03T16:48:45.783Z,104.00
2022-12-03T16:58:51.148Z,104.43
2022-12-03T17:08:54.872Z,106.17
2022-12-03T17:19:00.218Z,97.13
2022-12-03T17:29:03.937Z,104.60
2022-12-03T17:39:09.293Z,103.93
2022-12-03T17:49:13.301Z,107.83
2022-12-03T17:59:18.610Z,106.23
2022-12-03T18:09:22.603Z,108.97
2022-12-03T18:19:27.788Z,109.73
2022-12-03T18:29:31.522Z,108.17
2022-12-03T18:39:39.803Z,103.80
2022-12-03T18:49:43.650Z,105.40
2022-12-03T18:59:48.861Z,116.30
2022-12-03T19:09:53.238Z,120.40
2022-12-03T19:19:58.801Z,107.83
2022-12-03T19:30:02.535Z,113.60
2022-12-03T19:40:10.756Z,105.83
2022-12-03T19:50:22.522Z,108.67
2022-12-03T20:00:28.016Z,106.70
2022-12-03T20:10:31.885Z,102.20
2022-12-03T20:20:37.089Z,105.33
2022-12-03T20:30:40.957Z,109.03
2022-12-03T20:40:46.171Z,107.33
2022-12-03T20:50:50.487Z,112.13
2022-12-03T21:00:55.937Z,110.33
2022-12-03T21:10:59.782Z,109.80
2022-12-03T21:21:05.913Z,113.90
2022-12-03T21:31:12.348Z,110.50
2022-12-03T21:41:18.051Z,110.97
2022-12-03T21:51:21.926Z,115.50
2022-12-03T22:01:27.703Z,103.80
2022-12-03T22:11:31.409Z,105.93
2022-12-03T22:21:36.601Z,110.60
2022-12-03T22:31:40.422Z,106.57
2022-12-03T22:41:45.722Z,110.67
2022-12-03T22:51:50.067Z,112.27
2022-12-03T23:01:55.123Z,114.20
2022-12-03T23:11:58.776Z,111.47
2022-12-03T23:22:03.892Z,115.97
2022-12-03T23:32:07.797Z,112.67
2022-12-03T23:42:13.056Z,112.83
2022-12-03T23:52:16.772Z,110.17
